Saint James, Missouri
Current Conditions -  °F | °C
As of 2:53 AM on Wednesday 26 Nov 2014 (Local Time) from KVIH Reporting Station
Clear Clear  
Wind Chill: 20°   Ceiling: Unl
Heat Index: 28°   Visibility: 10mi
Dew Point: 18°   Wind: 8mph
Humidity: 66%   Direction: 140°SE
Pressure: 30.02"   Gusts: NA
Location:  38°N, 91.61°W
Report Text: KVIH 260853Z AUTO 14007KT 10SM CLR M02/M08 A3002 RMK AO2 SLP174 T10221078 56020
Loading
Personal Weather Stations






























Interactive Weather Map New forecast layout! Learn more

10-Day Weather Forecast

Advertisements
Track Severe Weather on mobile